createdAt,value
2022-11-14T00:00:10.927Z,5.87
2022-11-14T00:04:19.489Z,6.90
2022-11-14T00:08:28.554Z,5.63
2022-11-14T00:12:37.285Z,5.97
2022-11-14T00:16:45.915Z,5.80
2022-11-14T00:20:55.015Z,5.53
2022-11-14T00:25:03.643Z,5.83
2022-11-14T00:29:16.397Z,6.67
2022-11-14T00:33:25.106Z,6.20
2022-11-14T00:37:33.748Z,6.67
2022-11-14T00:41:43.089Z,5.67
2022-11-14T00:45:51.642Z,5.67
2022-11-14T00:50:00.231Z,6.00
2022-11-14T00:54:09.060Z,5.40
2022-11-14T00:58:17.689Z,6.37
2022-11-14T01:02:26.197Z,6.87
2022-11-14T01:06:34.748Z,6.90
2022-11-14T01:10:45.661Z,6.60
2022-11-14T01:14:56.154Z,7.43
2022-11-14T01:19:05.386Z,7.37
2022-11-14T01:23:16.833Z,7.57
2022-11-14T01:27:26.385Z,6.70
2022-11-14T01:31:35.198Z,6.83
2022-11-14T01:35:43.938Z,7.20
2022-11-14T01:39:52.576Z,6.30
2022-11-14T01:44:01.138Z,8.07
2022-11-14T01:48:12.804Z,7.67
2022-11-14T01:52:24.416Z,7.43
2022-11-14T01:56:54.945Z,7.43
2022-11-14T02:01:04.330Z,7.10
2022-11-14T02:05:16.093Z,7.57
2022-11-14T02:09:25.690Z,7.53
2022-11-14T02:13:34.375Z,7.30
2022-11-14T02:17:44.764Z,7.50
2022-11-14T02:21:53.515Z,7.77
2022-11-14T02:26:02.617Z,7.00
2022-11-14T02:30:17.355Z,6.90
2022-11-14T02:34:26.221Z,5.73
2022-11-14T02:38:35.260Z,7.27
2022-11-14T02:42:43.746Z,7.12
2022-11-14T02:46:52.324Z,7.30
2022-11-14T02:51:00.888Z,7.40
2022-11-14T02:55:10.131Z,7.77
2022-11-14T02:59:18.710Z,6.87
2022-11-14T03:03:27.444Z,7.33
2022-11-14T03:07:36.000Z,7.90
2022-11-14T03:11:44.905Z,8.30
2022-11-14T03:15:53.532Z,8.80
2022-11-14T03:20:02.808Z,6.47
2022-11-14T03:24:11.406Z,7.33
2022-11-14T03:28:19.965Z,9.00
2022-11-14T03:32:28.584Z,7.87
2022-11-14T03:36:37.522Z,8.87
2022-11-14T03:41:05.601Z,7.57
2022-11-14T03:45:14.316Z,8.00
2022-11-14T03:49:22.844Z,7.17
2022-11-14T03:53:31.466Z,6.67
2022-11-14T03:57:40.096Z,7.53
2022-11-14T04:01:49.040Z,7.53
2022-11-14T04:05:57.628Z,9.30
2022-11-14T04:10:07.237Z,7.73
2022-11-14T04:14:15.838Z,8.73
2022-11-14T04:18:25.508Z,7.90
2022-11-14T04:22:34.324Z,8.50
2022-11-14T04:26:42.954Z,8.53
2022-11-14T04:30:51.583Z,8.03
2022-11-14T04:35:00.620Z,7.77
2022-11-14T04:39:09.272Z,8.50
2022-11-14T04:43:17.887Z,8.20
2022-11-14T04:47:26.480Z,7.40
2022-11-14T04:51:35.237Z,8.00
2022-11-14T05:00:18.355Z,7.60
2022-11-14T05:04:27.096Z,8.53
2022-11-14T05:08:36.118Z,9.67
2022-11-14T05:12:44.764Z,7.17
2022-11-14T05:16:53.395Z,8.50
2022-11-14T05:21:02.544Z,8.27
2022-11-14T05:25:30.624Z,8.37
2022-11-14T05:29:39.246Z,7.50
2022-11-14T05:33:48.166Z,8.97
2022-11-14T05:37:59.932Z,9.90
2022-11-14T05:42:07.042Z,10.17
2022-11-14T05:46:18.984Z,9.00
2022-11-14T05:50:27.509Z,9.17
2022-11-14T05:54:36.141Z,7.83
2022-11-14T05:58:44.766Z,8.63
2022-11-14T06:02:57.035Z,9.53
2022-11-14T06:07:06.901Z,9.40
2022-11-14T06:11:18.397Z,10.37
2022-11-14T06:15:27.129Z,9.67
2022-11-14T06:19:36.146Z,9.10
2022-11-14T06:24:05.303Z,9.50
2022-11-14T06:28:13.942Z,9.07
2022-11-14T06:32:22.617Z,8.03
2022-11-14T06:36:31.196Z,7.93
2022-11-14T06:40:39.771Z,8.43
2022-11-14T06:44:48.456Z,8.57
2022-11-14T06:48:56.949Z,9.78
2022-11-14T06:53:05.610Z,9.37
2022-11-14T06:57:14.751Z,9.70
2022-11-14T07:01:27.318Z,8.57
2022-11-14T07:05:35.900Z,9.30
2022-11-14T07:09:44.528Z,8.83
2022-11-14T07:13:55.616Z,8.80
2022-11-14T07:18:04.350Z,12.63
2022-11-14T07:22:13.180Z,13.62
2022-11-14T07:26:21.809Z,12.17
2022-11-14T07:30:30.454Z,12.60
2022-11-14T07:34:39.167Z,10.10
2022-11-14T07:38:47.758Z,9.97
2022-11-14T07:43:01.442Z,9.80
2022-11-14T07:47:10.173Z,11.33
2022-11-14T07:51:22.404Z,12.03
2022-11-14T07:55:32.039Z,11.23
2022-11-14T07:59:40.668Z,10.80
2022-11-14T08:03:49.207Z,11.50
2022-11-14T08:08:17.131Z,10.47
2022-11-14T08:12:25.807Z,11.30
2022-11-14T08:16:34.740Z,11.50
2022-11-14T08:21:07.024Z,14.80
2022-11-14T08:25:15.666Z,15.20
2022-11-14T08:29:25.099Z,12.80
2022-11-14T08:33:33.763Z,11.10
2022-11-14T08:37:42.627Z,9.40
2022-11-14T08:41:51.292Z,9.27
2022-11-14T08:46:02.185Z,11.10
2022-11-14T08:50:30.465Z,11.13
2022-11-14T08:54:40.455Z,10.80
2022-11-14T08:58:49.055Z,10.40
2022-11-14T09:02:58.633Z,10.93
2022-11-14T09:07:07.787Z,12.73
2022-11-14T09:11:19.074Z,11.57
2022-11-14T09:15:28.380Z,10.57
2022-11-14T09:19:37.009Z,10.10
2022-11-14T09:23:49.821Z,11.50
2022-11-14T09:27:58.868Z,10.90
2022-11-14T09:32:08.231Z,9.87
2022-11-14T09:36:18.561Z,10.80
2022-11-14T09:40:27.934Z,11.50
2022-11-14T09:44:51.002Z,11.13
2022-11-14T09:49:00.552Z,12.17
2022-11-14T09:53:18.090Z,13.30
2022-11-14T09:57:46.892Z,11.10
2022-11-14T10:02:22.357Z,12.33
2022-11-14T10:07:07.576Z,11.90
2022-11-14T10:11:46.781Z,11.00
2022-11-14T10:16:22.181Z,11.53
2022-11-14T10:21:01.689Z,13.50
2022-11-14T10:25:31.108Z,10.33
2022-11-14T10:29:42.708Z,12.20
2022-11-14T10:34:06.183Z,12.27
2022-11-14T10:38:21.468Z,12.33
2022-11-14T10:42:38.590Z,11.90
2022-11-14T10:47:08.045Z,12.03
2022-11-14T10:51:37.528Z,10.50
2022-11-14T10:56:03.771Z,8.60
2022-11-14T10:59:59.598Z,8.40
2022-11-14T11:04:34.767Z,6.20
2022-11-14T11:09:02.152Z,7.20
2022-11-14T11:13:13.927Z,5.63
2022-11-14T11:17:29.585Z,6.70
2022-11-14T11:21:38.918Z,6.50
2022-11-14T11:25:49.131Z,6.43
2022-11-14T11:30:10.576Z,7.40
2022-11-14T11:34:22.251Z,6.73
2022-11-14T11:38:33.226Z,5.80
2022-11-14T11:43:36.625Z,6.47
2022-11-14T11:47:23.467Z,6.90
2022-11-14T11:51:34.001Z,6.93
2022-11-14T11:55:52.296Z,7.17
2022-11-14T12:00:06.634Z,8.60
2022-11-14T12:04:15.305Z,7.73
2022-11-14T12:08:36.101Z,7.17
2022-11-14T12:12:47.798Z,9.70
2022-11-14T12:17:31.499Z,7.20
2022-11-14T12:22:03.913Z,8.83
2022-11-14T12:26:15.554Z,9.50
2022-11-14T12:30:26.081Z,6.80
2022-11-14T12:34:45.481Z,8.70
2022-11-14T12:38:55.473Z,9.10
2022-11-14T12:43:05.087Z,8.20
2022-11-14T12:47:19.640Z,8.30
2022-11-14T12:51:31.438Z,8.70
2022-11-14T12:55:46.148Z,9.50
2022-11-14T13:00:14.704Z,8.30
2022-11-14T13:04:38.426Z,8.60
2022-11-14T13:09:04.684Z,7.43
2022-11-14T13:13:33.806Z,9.10
2022-11-14T13:18:01.669Z,9.57
2022-11-14T13:22:16.121Z,9.10
2022-11-14T13:26:33.762Z,8.97
2022-11-14T13:31:07.335Z,10.07
2022-11-14T13:35:33.516Z,10.37
2022-11-14T13:40:17.062Z,9.00
2022-11-14T13:44:58.459Z,7.47
2022-11-14T13:49:46.205Z,10.13
2022-11-14T13:53:54.745Z,9.03
2022-11-14T13:58:40.019Z,9.60
2022-11-14T14:03:19.095Z,10.13
2022-11-14T14:07:30.950Z,8.53
2022-11-14T14:11:59.358Z,8.50
2022-11-14T14:16:20.586Z,8.33
2022-11-14T14:20:38.225Z,8.53
2022-11-14T14:25:17.308Z,8.93
2022-11-14T14:29:47.397Z,8.43
2022-11-14T14:33:55.924Z,8.73
2022-11-14T14:38:06.621Z,9.00
2022-11-14T14:42:38.987Z,8.90
2022-11-14T14:46:48.298Z,8.13
2022-11-14T14:50:59.244Z,8.00
2022-11-14T14:55:10.783Z,10.20
2022-11-14T14:59:22.102Z,10.37
2022-11-14T15:03:39.024Z,8.90
2022-11-14T15:07:49.987Z,9.03
2022-11-14T15:12:01.406Z,10.23
2022-11-14T15:16:11.508Z,10.37
2022-11-14T15:20:29.924Z,9.50
2022-11-14T15:25:14.708Z,9.40
2022-11-14T15:29:25.665Z,7.80
2022-11-14T15:33:36.264Z,8.90
2022-11-14T15:38:36.779Z,11.53
2022-11-14T15:42:21.778Z,10.97
2022-11-14T15:46:36.860Z,10.77
2022-11-14T15:50:46.972Z,9.33
2022-11-14T15:54:55.590Z,9.93
2022-11-14T15:59:04.179Z,10.33
2022-11-14T16:03:15.470Z,9.60
2022-11-14T16:07:24.044Z,9.03
2022-11-14T16:11:33.778Z,10.10
2022-11-14T16:15:42.328Z,10.50
2022-11-14T16:19:50.897Z,9.53
2022-11-14T16:23:59.467Z,10.47
2022-11-14T16:28:08.042Z,11.63
2022-11-14T16:32:16.621Z,8.17
2022-11-14T16:36:25.209Z,10.20
2022-11-14T16:40:33.766Z,9.53
2022-11-14T16:44:47.800Z,8.40
2022-11-14T16:48:52.945Z,9.97
2022-11-14T16:53:01.574Z,9.70
2022-11-14T17:01:25.877Z,11.17
2022-11-14T17:05:34.826Z,10.20
2022-11-14T17:09:43.412Z,8.90
2022-11-14T17:13:51.981Z,10.60
2022-11-14T17:18:00.530Z,10.13
2022-11-14T17:22:09.237Z,11.00
2022-11-14T17:26:17.762Z,11.17
2022-11-14T17:30:26.392Z,9.73
2022-11-14T17:34:34.938Z,9.60
2022-11-14T17:38:43.549Z,9.53
2022-11-14T17:42:53.508Z,9.17
2022-11-14T17:47:02.038Z,9.83
2022-11-14T17:51:13.631Z,9.97
2022-11-14T17:55:22.464Z,8.40
2022-11-14T17:59:30.957Z,9.33
2022-11-14T18:03:39.620Z,11.00
2022-11-14T18:07:48.144Z,9.40
2022-11-14T18:11:56.776Z,9.57
2022-11-14T18:16:08.379Z,11.07
2022-11-14T18:20:17.367Z,10.30
2022-11-14T18:24:26.063Z,9.53
2022-11-14T18:28:34.670Z,9.67
2022-11-14T18:33:02.549Z,9.43
2022-11-14T18:37:11.179Z,9.80
2022-11-14T18:41:22.202Z,8.43
2022-11-14T18:45:30.796Z,8.97
2022-11-14T18:49:39.421Z,8.90
2022-11-14T18:53:51.403Z,9.27
2022-11-14T18:58:00.054Z,8.37
2022-11-14T19:02:10.224Z,8.53
2022-11-14T19:06:31.110Z,9.67
2022-11-14T19:10:39.765Z,8.40
2022-11-14T19:14:50.544Z,7.83
2022-11-14T19:18:59.972Z,9.97
2022-11-14T19:23:08.653Z,9.43
2022-11-14T19:27:17.353Z,8.67
2022-11-14T19:31:25.851Z,9.87
2022-11-14T19:35:34.432Z,9.13
2022-11-14T19:39:43.032Z,8.97
2022-11-14T19:43:52.281Z,9.80
2022-11-14T19:48:00.772Z,8.87
2022-11-14T19:52:10.103Z,9.67
2022-11-14T19:56:20.173Z,9.80
2022-11-14T20:00:29.517Z,9.30
2022-11-14T20:04:38.285Z,8.33
2022-11-14T20:08:46.781Z,8.50
2022-11-14T20:12:55.353Z,7.70
2022-11-14T20:17:04.376Z,8.13
2022-11-14T20:21:17.720Z,7.77
2022-11-14T20:25:26.344Z,8.13
2022-11-14T20:29:34.960Z,9.20
2022-11-14T20:33:45.865Z,9.07
2022-11-14T20:37:54.416Z,7.70
2022-11-14T20:42:03.015Z,7.63
2022-11-14T20:46:16.559Z,7.70
2022-11-14T20:50:25.183Z,8.50
2022-11-14T20:54:34.527Z,8.53
2022-11-14T20:58:44.433Z,7.37
2022-11-14T21:02:53.683Z,8.63
2022-11-14T21:07:02.360Z,8.67
2022-11-14T21:11:15.450Z,7.50
2022-11-14T21:15:24.124Z,8.13
2022-11-14T21:19:32.753Z,8.27
2022-11-14T21:23:41.279Z,9.17
2022-11-14T21:27:49.916Z,7.37
2022-11-14T21:31:58.537Z,9.03
2022-11-14T21:36:37.622Z,8.73
2022-11-14T21:40:21.834Z,9.40
2022-11-14T21:44:30.462Z,11.13
2022-11-14T21:48:41.846Z,9.87
2022-11-14T21:53:11.478Z,9.43
2022-11-14T21:57:39.459Z,7.57
2022-11-14T22:02:25.775Z,7.93
2022-11-14T22:06:34.403Z,9.47
2022-11-14T22:10:43.134Z,8.80
2022-11-14T22:14:51.759Z,9.30
2022-11-14T22:19:05.035Z,8.30
2022-11-14T22:23:10.860Z,9.23
2022-11-14T22:27:19.489Z,9.87
2022-11-14T22:31:28.323Z,12.27
2022-11-14T22:35:36.951Z,9.33
2022-11-14T22:39:45.493Z,9.90
2022-11-14T22:43:54.312Z,9.53
2022-11-14T22:48:02.942Z,9.77
2022-11-14T22:52:31.025Z,9.53
2022-11-14T22:56:40.166Z,7.83
2022-11-14T23:00:48.795Z,7.67
2022-11-14T23:04:57.296Z,7.73
2022-11-14T23:09:06.434Z,7.60
2022-11-14T23:13:15.689Z,8.47
2022-11-14T23:17:26.153Z,7.30
2022-11-14T23:21:38.153Z,7.53
2022-11-14T23:25:46.715Z,9.90
2022-11-14T23:29:55.337Z,8.97
2022-11-14T23:34:03.866Z,8.00
2022-11-14T23:42:27.836Z,8.30
2022-11-14T23:46:36.508Z,8.20
2022-11-14T23:50:45.753Z,8.30
2022-11-14T23:54:54.483Z,7.40
2022-11-14T23:59:03.009Z,8.70
